MMGM/GYM METAR and TAF weather

Enter ICAO airport designator
Station Type Date Time Source
MMGM METAR 2019/02/17 14:45 UTC NOAA

MMGM 171445Z 00000KT 10SM SCT100 12/02 A2999 RMK 8/030


Station Type Date Time Source
MMGM Decoded METAR 2019/02/17 14:45 UTC NOAA

Guaymas International Airport, Mexico (MMGM) 27-58N 110-56W
Feb 17, 2019 - 09:45 AM EST / 2019.02.17 1445 UTC
Wind: Calm:0
Visibility: 10 mile(s):0
Sky conditions: partly cloudy
Temperature: 53 F (12 C)
Dew Point: 35 F (2 C)
Relative Humidity: 50%
Pressure (altimeter): 29.99 in. Hg (1015 hPa)
ob: MMGM 171445Z 00000KT 10SM SCT100 12/02 A2999 RMK 8/030
cycle: 15

Station Type Date Time Source
MMGM TAF 2019/02/17 06:30 UTC NOAA

TAF MMGM 170427Z 1706/1806 34008KT P6SM SKC
FM171800 34016KT P6SM BKN250
FM180500 32006KT P6SM SKC


Example: see airport list